createdAt,value
2018-02-17T00:00:48.620Z,81.18
2018-02-17T00:03:16.356Z,81.49
2018-02-17T00:05:43.421Z,81.72
2018-02-17T00:08:10.490Z,81.70
2018-02-17T00:10:37.635Z,81.41
2018-02-17T00:13:04.647Z,81.33
2018-02-17T00:15:32.981Z,81.53
2018-02-17T00:18:00.044Z,81.53
2018-02-17T00:20:27.108Z,81.40
2018-02-17T00:22:54.178Z,81.41
2018-02-17T00:25:21.264Z,81.38
2018-02-17T00:27:48.310Z,81.43
2018-02-17T00:30:15.486Z,81.28
2018-02-17T00:32:42.555Z,81.42
2018-02-17T00:35:09.623Z,81.44
2018-02-17T00:37:36.852Z,81.38
2018-02-17T00:40:03.902Z,81.39
2018-02-17T00:42:30.988Z,81.23
2018-02-17T00:44:58.160Z,81.15
2018-02-17T00:47:25.199Z,81.04
2018-02-17T00:49:52.238Z,81.13
2018-02-17T00:52:19.553Z,81.12
2018-02-17T00:54:46.588Z,81.01
2018-02-17T00:57:13.703Z,80.96
2018-02-17T00:59:40.726Z,81.29
2018-02-17T01:02:07.779Z,81.60
2018-02-17T01:04:34.811Z,81.62
2018-02-17T01:07:01.871Z,81.58
2018-02-17T01:09:28.907Z,81.74
2018-02-17T01:11:55.949Z,81.81
2018-02-17T01:14:22.996Z,81.89
2018-02-17T01:16:50.098Z,82.05
2018-02-17T01:19:17.164Z,81.98
2018-02-17T01:21:44.172Z,81.94
2018-02-17T01:24:11.276Z,82.03
2018-02-17T01:26:38.324Z,81.94
2018-02-17T01:29:05.397Z,81.81
2018-02-17T01:31:32.408Z,81.67
2018-02-17T01:33:59.361Z,81.63
2018-02-17T01:36:26.632Z,81.57
2018-02-17T01:38:53.669Z,81.49
2018-02-17T01:41:20.693Z,81.15
2018-02-17T01:43:47.720Z,81.07
2018-02-17T01:46:14.729Z,80.94
2018-02-17T01:48:41.821Z,80.94
2018-02-17T01:51:08.820Z,81.04
2018-02-17T01:53:35.883Z,80.82
2018-02-17T01:56:02.920Z,80.87
2018-02-17T01:58:30.003Z,80.83
2018-02-17T02:00:57.034Z,80.73
2018-02-17T02:03:24.097Z,80.96
2018-02-17T02:05:51.122Z,80.99
2018-02-17T02:08:18.160Z,80.76
2018-02-17T02:10:45.243Z,80.58
2018-02-17T02:13:12.304Z,80.74
2018-02-17T02:15:39.319Z,80.74
2018-02-17T02:18:06.348Z,80.87
2018-02-17T02:20:33.398Z,81.04
2018-02-17T02:23:00.389Z,80.95
2018-02-17T02:25:27.417Z,81.03
2018-02-17T02:27:54.389Z,81.24
2018-02-17T02:30:21.447Z,81.16
2018-02-17T02:32:48.474Z,80.83
2018-02-17T02:35:15.625Z,80.79
2018-02-17T02:37:42.641Z,81.04
2018-02-17T02:40:09.650Z,81.04
2018-02-17T02:42:36.663Z,80.96
2018-02-17T02:45:03.730Z,81.01
2018-02-17T02:47:30.783Z,81.01
2018-02-17T02:49:57.850Z,81.13
2018-02-17T02:52:24.911Z,80.78
2018-02-17T02:54:51.985Z,80.81
2018-02-17T02:57:18.978Z,80.95
2018-02-17T02:59:46.002Z,80.76
2018-02-17T03:02:13.071Z,80.44
2018-02-17T03:04:40.181Z,80.36
2018-02-17T03:07:07.247Z,80.54
2018-02-17T03:09:34.288Z,80.62
2018-02-17T03:12:01.315Z,80.77
2018-02-17T03:14:28.364Z,80.83
2018-02-17T03:16:55.387Z,80.89
2018-02-17T03:19:22.429Z,80.67
2018-02-17T03:21:49.440Z,80.83
2018-02-17T03:24:16.467Z,80.88
2018-02-17T03:26:43.621Z,80.58
2018-02-17T03:29:10.843Z,80.28
2018-02-17T03:31:37.792Z,80.39
2018-02-17T03:34:04.840Z,80.67
2018-02-17T03:36:32.155Z,81.03
2018-02-17T03:38:59.250Z,80.93
2018-02-17T03:41:26.332Z,80.91
2018-02-17T03:43:53.444Z,80.66
2018-02-17T03:46:20.493Z,80.54
2018-02-17T03:48:48.037Z,80.53
2018-02-17T03:51:15.070Z,80.53
2018-02-17T03:53:42.101Z,80.54
2018-02-17T03:56:09.188Z,80.50
2018-02-17T03:58:36.263Z,80.42
2018-02-17T04:01:03.484Z,80.49
2018-02-17T04:03:30.510Z,80.62
2018-02-17T04:05:57.613Z,80.61
2018-02-17T04:08:24.669Z,80.28
2018-02-17T04:10:51.706Z,80.09
2018-02-17T04:13:18.755Z,79.95
2018-02-17T04:15:45.813Z,80.08
2018-02-17T04:18:12.802Z,80.55
2018-02-17T04:20:39.764Z,80.58
2018-02-17T04:23:06.803Z,80.52
2018-02-17T04:25:33.851Z,80.28
2018-02-17T04:28:00.956Z,80.12
2018-02-17T04:30:28.000Z,80.22
2018-02-17T04:32:55.024Z,80.02
2018-02-17T04:35:21.967Z,79.64
2018-02-17T04:37:48.992Z,79.71
2018-02-17T04:40:25.952Z,80.02
2018-02-17T04:43:08.674Z,80.14
2018-02-17T04:45:45.685Z,80.45
2018-02-17T04:48:22.648Z,80.59
2018-02-17T04:50:53.294Z,80.37
2018-02-17T04:53:22.880Z,80.66
2018-02-17T04:58:42.718Z,82.15
2018-02-17T05:01:24.627Z,81.71
2018-02-17T05:03:56.112Z,81.96
2018-02-17T05:06:43.034Z,82.06
2018-02-17T05:09:10.023Z,82.00
2018-02-17T05:11:37.040Z,82.40
2018-02-17T05:14:09.772Z,82.82
2018-02-17T05:16:47.411Z,82.97
2018-02-17T05:19:14.414Z,82.79
2018-02-17T05:21:41.378Z,82.46
2018-02-17T05:24:10.136Z,82.74
2018-02-17T05:26:47.094Z,82.67
2018-02-17T05:29:14.310Z,82.54
2018-02-17T05:31:41.317Z,82.36
2018-02-17T05:34:13.078Z,82.25
2018-02-17T05:36:40.075Z,82.05
2018-02-17T05:39:07.113Z,81.81
2018-02-17T05:41:50.849Z,81.77
2018-02-17T05:44:23.415Z,81.93
2018-02-17T05:46:52.310Z,82.30
2018-02-17T05:49:20.847Z,82.56
2018-02-17T05:51:47.866Z,82.68
2018-02-17T05:54:14.915Z,82.92
2018-02-17T05:56:41.891Z,82.85
2018-02-17T05:59:08.906Z,82.95
2018-02-17T06:01:35.951Z,82.72
2018-02-17T06:04:02.958Z,82.52
2018-02-17T06:06:30.073Z,82.55
2018-02-17T06:08:57.134Z,82.28
2018-02-17T06:11:24.188Z,82.33
2018-02-17T06:13:51.206Z,82.44
2018-02-17T06:16:18.276Z,82.46
2018-02-17T06:18:45.330Z,82.43
2018-02-17T06:21:12.355Z,82.40
2018-02-17T06:23:39.433Z,82.57
2018-02-17T06:26:06.492Z,82.70
2018-02-17T06:28:33.579Z,82.66
2018-02-17T06:31:00.627Z,82.83
2018-02-17T06:33:27.668Z,83.06
2018-02-17T06:35:54.775Z,83.01
2018-02-17T06:38:21.757Z,82.96
2018-02-17T06:40:48.772Z,83.07
2018-02-17T06:43:16.163Z,82.96
2018-02-17T06:45:43.328Z,83.03
2018-02-17T06:48:10.431Z,83.19
2018-02-17T06:50:37.462Z,83.45
2018-02-17T06:53:04.564Z,83.27
2018-02-17T06:55:31.600Z,83.30
2018-02-17T06:57:58.640Z,83.27
2018-02-17T07:00:25.614Z,83.29
2018-02-17T07:02:52.764Z,83.44
2018-02-17T07:05:19.775Z,83.21
2018-02-17T07:07:47.315Z,83.32
2018-02-17T07:10:14.422Z,83.62
2018-02-17T07:12:41.490Z,83.55
2018-02-17T07:15:08.535Z,83.64
2018-02-17T07:17:35.565Z,83.40
2018-02-17T07:20:02.629Z,83.42
2018-02-17T07:22:29.703Z,83.21
2018-02-17T07:24:56.743Z,82.93
2018-02-17T07:27:23.744Z,83.13
2018-02-17T07:29:50.982Z,83.27
2018-02-17T07:32:18.003Z,83.19
2018-02-17T07:34:45.055Z,83.11
2018-02-17T07:37:12.065Z,82.87
2018-02-17T07:39:39.114Z,82.45
2018-02-17T07:42:06.183Z,82.40
2018-02-17T07:44:33.238Z,82.40
2018-02-17T07:47:00.604Z,82.61
2018-02-17T07:49:27.661Z,82.55
2018-02-17T07:51:54.732Z,82.80
2018-02-17T07:54:21.867Z,82.68
2018-02-17T07:56:48.929Z,82.51
2018-02-17T07:59:15.978Z,82.41
2018-02-17T08:01:43.028Z,82.52
2018-02-17T08:04:10.111Z,82.53
2018-02-17T08:06:37.138Z,82.69
2018-02-17T08:09:04.120Z,82.89
2018-02-17T08:11:31.485Z,83.23
2018-02-17T08:13:58.523Z,83.50
2018-02-17T08:16:26.046Z,83.54
2018-02-17T08:18:53.097Z,83.39
2018-02-17T08:21:20.126Z,83.62
2018-02-17T08:23:47.124Z,83.93
2018-02-17T08:26:14.166Z,84.30
2018-02-17T08:28:41.202Z,84.13
2018-02-17T08:31:08.259Z,83.94
2018-02-17T08:33:35.370Z,83.72
2018-02-17T08:36:02.399Z,83.30
2018-02-17T08:38:31.155Z,82.98
2018-02-17T08:40:58.321Z,83.37
2018-02-17T08:43:25.979Z,83.35
2018-02-17T08:45:53.017Z,83.34
2018-02-17T08:48:20.107Z,83.57
2018-02-17T08:50:47.213Z,83.57
2018-02-17T08:53:14.827Z,83.57
2018-02-17T08:55:41.851Z,83.64
2018-02-17T08:58:08.876Z,83.82
2018-02-17T09:00:35.959Z,83.72
2018-02-17T09:03:02.998Z,83.89
2018-02-17T09:05:30.080Z,83.86
2018-02-17T09:07:57.541Z,83.75
2018-02-17T09:10:30.381Z,83.85
2018-02-17T09:12:57.436Z,83.57
2018-02-17T09:15:24.606Z,83.18
2018-02-17T09:17:51.667Z,82.98
2018-02-17T09:20:18.723Z,83.09
2018-02-17T09:22:45.788Z,83.44
2018-02-17T09:25:12.850Z,83.53
2018-02-17T09:27:39.919Z,83.44
2018-02-17T09:30:06.973Z,83.28
2018-02-17T09:32:34.029Z,82.97
2018-02-17T09:35:01.132Z,82.47
2018-02-17T09:37:28.248Z,82.59
2018-02-17T09:39:55.344Z,82.27
2018-02-17T09:42:22.431Z,81.80
2018-02-17T09:44:49.488Z,81.37
2018-02-17T09:47:16.477Z,81.14
2018-02-17T09:49:43.498Z,81.02
2018-02-17T09:52:10.544Z,80.97
2018-02-17T09:54:38.132Z,81.00
2018-02-17T09:57:05.326Z,81.02
2018-02-17T09:59:32.396Z,81.01
2018-02-17T10:01:59.402Z,81.95
2018-02-17T10:04:26.453Z,81.75
2018-02-17T10:06:53.601Z,81.22
2018-02-17T10:09:20.652Z,81.07
2018-02-17T10:11:47.711Z,80.75
2018-02-17T10:14:14.783Z,81.05
2018-02-17T10:16:41.793Z,80.89
2018-02-17T10:19:08.819Z,80.72
2018-02-17T10:21:35.873Z,80.73
2018-02-17T10:24:02.923Z,80.61
2018-02-17T10:26:29.975Z,80.47
2018-02-17T10:28:57.016Z,80.44
2018-02-17T10:31:24.126Z,80.58
2018-02-17T10:33:51.175Z,80.46
2018-02-17T10:36:18.256Z,80.29
2018-02-17T10:38:45.286Z,80.15
2018-02-17T10:41:12.338Z,80.29
2018-02-17T10:43:39.395Z,80.48
2018-02-17T10:46:06.471Z,80.68
2018-02-17T10:48:33.453Z,80.49
2018-02-17T10:51:00.461Z,80.65
2018-02-17T10:53:27.504Z,80.73
2018-02-17T10:55:54.565Z,81.22
2018-02-17T10:58:21.632Z,81.36
2018-02-17T11:00:48.649Z,81.53
2018-02-17T11:03:15.637Z,81.73
2018-02-17T11:05:42.944Z,81.81
2018-02-17T11:08:09.961Z,81.90
2018-02-17T11:10:37.064Z,82.04
2018-02-17T11:13:04.093Z,82.23
2018-02-17T11:15:31.199Z,82.53
2018-02-17T11:17:58.202Z,82.93
2018-02-17T11:20:25.251Z,83.03
2018-02-17T11:22:52.326Z,82.41
2018-02-17T11:25:19.416Z,82.08
2018-02-17T11:27:46.577Z,82.20
2018-02-17T11:30:13.678Z,82.78
2018-02-17T11:32:40.717Z,83.35
2018-02-17T11:35:07.717Z,83.71
2018-02-17T11:37:34.804Z,83.64
2018-02-17T11:40:01.869Z,83.36
2018-02-17T11:42:28.975Z,83.41
2018-02-17T11:44:55.938Z,83.57
2018-02-17T11:47:22.954Z,83.66
2018-02-17T11:49:49.961Z,83.60
2018-02-17T11:52:17.001Z,83.77
2018-02-17T11:54:44.005Z,83.88
2018-02-17T11:57:11.058Z,84.06
2018-02-17T11:59:38.067Z,84.03
2018-02-17T12:02:05.090Z,84.01
2018-02-17T12:04:32.148Z,83.77
2018-02-17T12:06:59.252Z,83.71
2018-02-17T12:09:26.277Z,83.60
2018-02-17T12:11:53.347Z,83.49
2018-02-17T12:14:20.347Z,83.42
2018-02-17T12:16:47.446Z,83.24
2018-02-17T12:19:14.701Z,82.98
2018-02-17T12:21:41.730Z,82.64
2018-02-17T12:24:08.833Z,82.30
2018-02-17T12:26:35.873Z,82.17
2018-02-17T12:29:02.884Z,82.35
2018-02-17T12:31:29.917Z,82.35
2018-02-17T12:33:56.922Z,82.29
2018-02-17T12:36:23.996Z,82.12
2018-02-17T12:38:51.116Z,82.12
2018-02-17T12:41:18.321Z,82.10
2018-02-17T12:43:45.283Z,81.94
2018-02-17T12:46:12.327Z,81.96
2018-02-17T12:48:39.382Z,81.94
2018-02-17T12:51:06.434Z,81.63
2018-02-17T12:53:33.462Z,81.14
2018-02-17T12:56:00.519Z,81.12
2018-02-17T12:58:27.593Z,79.96
2018-02-17T13:00:54.610Z,79.36
2018-02-17T13:03:21.686Z,79.39
2018-02-17T13:05:48.655Z,79.90
2018-02-17T13:08:15.707Z,80.53
2018-02-17T13:10:42.859Z,81.00
2018-02-17T13:13:09.839Z,81.19
2018-02-17T13:15:36.895Z,81.21
2018-02-17T13:18:04.048Z,81.29
2018-02-17T13:20:31.640Z,81.37
2018-02-17T13:22:58.643Z,81.54
2018-02-17T13:25:25.873Z,81.23
2018-02-17T13:27:52.974Z,81.30
2018-02-17T13:30:20.077Z,81.67
2018-02-17T13:32:47.143Z,81.44
2018-02-17T13:35:14.119Z,81.01
2018-02-17T13:37:41.166Z,80.36
2018-02-17T13:40:08.212Z,80.25
2018-02-17T13:42:35.213Z,80.45
2018-02-17T13:45:03.336Z,80.15
2018-02-17T13:47:30.487Z,79.91
2018-02-17T13:49:57.563Z,79.39
2018-02-17T13:52:24.605Z,78.93
2018-02-17T13:54:51.664Z,78.61
2018-02-17T13:57:18.751Z,77.79
2018-02-17T13:59:45.903Z,77.27
2018-02-17T14:02:12.961Z,77.21
2018-02-17T14:04:39.926Z,77.21
2018-02-17T14:07:06.947Z,77.15
2018-02-17T14:09:33.977Z,76.97
2018-02-17T14:12:01.757Z,76.72
2018-02-17T14:14:28.814Z,76.41
2018-02-17T14:16:55.874Z,76.57
2018-02-17T14:19:22.837Z,76.63
2018-02-17T14:21:49.854Z,76.57
2018-02-17T14:24:16.863Z,76.68
2018-02-17T14:26:43.917Z,76.65
2018-02-17T14:29:10.938Z,76.71
2018-02-17T14:31:37.984Z,76.36
2018-02-17T14:34:05.014Z,76.29
2018-02-17T14:36:32.024Z,76.25
2018-02-17T14:38:59.033Z,75.84
2018-02-17T14:41:26.080Z,73.92
2018-02-17T14:43:53.119Z,73.72
2018-02-17T14:46:20.146Z,73.91
2018-02-17T14:48:47.186Z,73.37
2018-02-17T14:51:14.203Z,72.49
2018-02-17T14:53:41.261Z,71.64
2018-02-17T14:56:08.309Z,71.98
2018-02-17T14:58:35.299Z,71.78
2018-02-17T15:01:02.342Z,71.61
2018-02-17T15:03:29.365Z,71.55
2018-02-17T15:05:56.398Z,71.86
2018-02-17T15:08:23.419Z,72.55
2018-02-17T15:10:50.419Z,73.04
2018-02-17T15:13:17.564Z,73.23
2018-02-17T15:15:44.621Z,72.67
2018-02-17T15:18:11.632Z,72.59
2018-02-17T15:20:38.680Z,72.73
2018-02-17T15:23:05.729Z,72.78
2018-02-17T15:25:32.698Z,72.83
2018-02-17T15:27:59.690Z,72.77
2018-02-17T15:30:27.229Z,72.91
2018-02-17T15:32:54.266Z,73.13
2018-02-17T15:35:21.416Z,73.07
2018-02-17T15:37:48.427Z,73.34
2018-02-17T15:40:15.404Z,73.99
2018-02-17T15:42:42.472Z,73.25
2018-02-17T15:45:09.529Z,72.73
2018-02-17T15:47:36.598Z,72.52
2018-02-17T15:50:03.590Z,72.73
2018-02-17T15:52:30.574Z,73.21
2018-02-17T15:54:57.629Z,73.38
2018-02-17T15:57:24.637Z,73.46
2018-02-17T15:59:51.692Z,73.23
2018-02-17T16:02:18.687Z,73.01
2018-02-17T16:04:45.754Z,73.18
2018-02-17T16:07:12.725Z,72.92
2018-02-17T16:09:39.774Z,72.59
2018-02-17T16:12:07.547Z,72.27
2018-02-17T16:14:34.608Z,71.60
2018-02-17T16:17:01.623Z,71.49
2018-02-17T16:19:28.767Z,70.63
2018-02-17T16:21:55.880Z,70.61
2018-02-17T16:24:22.914Z,70.54
2018-02-17T16:26:49.983Z,70.83
2018-02-17T16:29:16.994Z,71.16
2018-02-17T16:31:44.050Z,71.58
2018-02-17T16:34:11.088Z,72.09
2018-02-17T16:36:38.081Z,72.22
2018-02-17T16:39:05.123Z,72.39
2018-02-17T16:41:32.107Z,72.47
2018-02-17T16:43:59.170Z,72.16
2018-02-17T16:46:26.255Z,72.05
2018-02-17T16:48:53.286Z,72.06
2018-02-17T16:51:20.348Z,71.82
2018-02-17T16:53:47.414Z,70.83
2018-02-17T16:56:14.552Z,70.98
2018-02-17T16:58:41.541Z,71.28
2018-02-17T17:01:08.484Z,71.40
2018-02-17T17:03:35.529Z,71.10
2018-02-17T17:06:03.207Z,71.17
2018-02-17T17:08:30.629Z,71.18
2018-02-17T17:10:57.655Z,71.20
2018-02-17T17:13:24.599Z,70.76
2018-02-17T17:15:51.613Z,70.27
2018-02-17T17:18:19.641Z,70.29
2018-02-17T17:20:46.698Z,70.25
2018-02-17T17:23:13.754Z,69.94
2018-02-17T17:25:40.790Z,69.92
2018-02-17T17:28:07.798Z,69.75
2018-02-17T17:30:34.861Z,69.84
2018-02-17T17:33:01.907Z,69.04
2018-02-17T17:35:28.942Z,68.42
2018-02-17T17:37:55.958Z,68.30
2018-02-17T17:40:23.072Z,68.41
2018-02-17T17:42:50.117Z,68.45
2018-02-17T17:45:17.256Z,68.58
2018-02-17T17:47:44.217Z,68.20
2018-02-17T17:50:11.261Z,68.08
2018-02-17T17:52:38.409Z,67.81
2018-02-17T17:55:05.377Z,68.17
2018-02-17T17:57:32.602Z,68.93
2018-02-17T17:59:59.649Z,69.29
2018-02-17T18:02:26.694Z,69.79
2018-02-17T18:04:53.704Z,70.23
2018-02-17T18:07:20.668Z,70.58
2018-02-17T18:09:47.630Z,70.55
2018-02-17T18:12:14.566Z,70.67
2018-02-17T18:14:41.564Z,70.68
2018-02-17T18:17:08.588Z,70.66
2018-02-17T18:19:35.660Z,70.86
2018-02-17T18:22:02.722Z,70.76
2018-02-17T18:24:29.724Z,70.40
2018-02-17T18:26:56.813Z,70.36
2018-02-17T18:29:23.906Z,70.48
2018-02-17T18:31:50.948Z,70.66
2018-02-17T18:34:17.944Z,70.70
2018-02-17T18:36:44.967Z,70.65
2018-02-17T18:39:11.986Z,70.94
2018-02-17T18:41:39.051Z,70.92
2018-02-17T18:44:06.159Z,70.88
2018-02-17T18:46:33.185Z,70.46
2018-02-17T18:49:00.245Z,70.04
2018-02-17T18:51:27.241Z,70.05
2018-02-17T18:53:54.314Z,69.36
2018-02-17T18:56:21.348Z,68.24
2018-02-17T18:58:48.395Z,67.66
2018-02-17T19:01:15.453Z,67.34
2018-02-17T19:03:42.472Z,67.53
2018-02-17T19:06:09.525Z,67.88
2018-02-17T19:08:36.481Z,68.29
2018-02-17T19:11:03.550Z,68.52
2018-02-17T19:13:30.614Z,68.16
2018-02-17T19:15:57.738Z,68.01
2018-02-17T19:18:24.725Z,68.12
2018-02-17T19:20:51.734Z,68.50
2018-02-17T19:23:18.741Z,68.77
2018-02-17T19:25:45.812Z,69.19
2018-02-17T19:28:12.943Z,69.63
2018-02-17T19:30:39.968Z,69.89
2018-02-17T19:33:07.073Z,69.98
2018-02-17T19:35:34.062Z,69.83
2018-02-17T19:38:01.123Z,69.54
2018-02-17T19:40:28.161Z,69.59
2018-02-17T19:42:55.234Z,69.49
2018-02-17T19:45:22.276Z,69.57
2018-02-17T19:47:49.328Z,69.57
2018-02-17T19:50:16.366Z,69.77
2018-02-17T19:52:43.401Z,69.95
2018-02-17T19:55:11.066Z,70.50
2018-02-17T19:57:38.028Z,70.61
2018-02-17T20:00:05.025Z,70.93
2018-02-17T20:02:32.099Z,71.04
2018-02-17T20:04:59.220Z,70.95
2018-02-17T20:07:26.247Z,71.18
2018-02-17T20:09:53.238Z,71.20
2018-02-17T20:12:20.272Z,71.11
2018-02-17T20:14:47.275Z,71.08
2018-02-17T20:17:14.411Z,70.96
2018-02-17T20:19:41.544Z,70.84
2018-02-17T20:22:08.580Z,70.96
2018-02-17T20:24:35.601Z,71.00
2018-02-17T20:27:02.632Z,71.19
2018-02-17T20:29:29.908Z,71.65
2018-02-17T20:31:56.965Z,71.74
2018-02-17T20:34:23.980Z,71.82
2018-02-17T20:36:51.081Z,71.96
2018-02-17T20:39:18.128Z,71.92
2018-02-17T20:41:45.137Z,71.73
2018-02-17T20:44:12.154Z,71.68
2018-02-17T20:46:39.204Z,71.96
2018-02-17T20:49:06.287Z,72.02
2018-02-17T20:51:33.354Z,71.81
2018-02-17T20:54:00.338Z,71.55
2018-02-17T20:56:27.403Z,71.38
2018-02-17T20:58:54.471Z,71.43
2018-02-17T21:01:21.568Z,71.56
2018-02-17T21:03:48.624Z,71.60
2018-02-17T21:06:15.636Z,71.60
2018-02-17T21:08:42.709Z,71.32
2018-02-17T21:11:09.771Z,71.49
2018-02-17T21:13:36.780Z,71.75
2018-02-17T21:16:03.869Z,71.90
2018-02-17T21:18:30.932Z,71.83
2018-02-17T21:20:57.889Z,71.92
2018-02-17T21:23:24.950Z,72.08
2018-02-17T21:25:52.088Z,71.65
2018-02-17T21:28:19.098Z,71.04
2018-02-17T21:30:46.127Z,70.93
2018-02-17T21:33:13.237Z,71.10
2018-02-17T21:35:40.210Z,70.85
2018-02-17T21:38:07.208Z,71.18
2018-02-17T21:40:34.273Z,70.87
2018-02-17T21:43:01.361Z,70.47
2018-02-17T21:45:28.395Z,70.69
2018-02-17T21:47:55.424Z,70.66
2018-02-17T21:50:22.482Z,70.49
2018-02-17T21:52:49.510Z,70.18
2018-02-17T21:55:16.593Z,69.91
2018-02-17T21:57:43.651Z,69.50
2018-02-17T22:00:10.617Z,69.38
2018-02-17T22:02:37.667Z,69.24
2018-02-17T22:05:04.686Z,69.21
2018-02-17T22:07:31.702Z,69.21
2018-02-17T22:09:58.739Z,68.89
2018-02-17T22:12:25.818Z,69.14
2018-02-17T22:14:52.781Z,68.33
2018-02-17T22:17:19.800Z,67.76
2018-02-17T22:19:46.863Z,66.69
2018-02-17T22:22:14.291Z,65.74
2018-02-17T22:24:41.464Z,64.69
2018-02-17T22:27:08.476Z,64.12
2018-02-17T22:29:35.537Z,62.38
2018-02-17T22:32:02.621Z,62.37
2018-02-17T22:34:29.666Z,61.98
2018-02-17T22:36:57.480Z,61.35
2018-02-17T22:39:24.524Z,62.44
2018-02-17T22:41:51.513Z,62.93
2018-02-17T22:44:18.509Z,62.66
2018-02-17T22:46:46.131Z,62.39
2018-02-17T22:49:13.145Z,62.30
2018-02-17T22:51:40.291Z,62.44
2018-02-17T22:54:07.347Z,62.51
2018-02-17T22:56:34.397Z,62.97
2018-02-17T22:59:01.451Z,62.56
2018-02-17T23:01:28.482Z,62.01
2018-02-17T23:03:55.535Z,61.26
2018-02-17T23:06:22.579Z,60.12
2018-02-17T23:08:49.594Z,58.90
2018-02-17T23:11:16.600Z,59.02
2018-02-17T23:13:43.609Z,58.89
2018-02-17T23:16:10.567Z,58.99
2018-02-17T23:18:37.605Z,59.03
2018-02-17T23:21:04.655Z,59.09
2018-02-17T23:23:31.750Z,58.90
2018-02-17T23:25:58.837Z,58.84
2018-02-17T23:28:25.869Z,58.76
2018-02-17T23:30:52.904Z,59.62
2018-02-17T23:33:19.977Z,60.42
2018-02-17T23:35:47.210Z,61.11
2018-02-17T23:38:14.337Z,62.42
2018-02-17T23:40:41.466Z,63.55
2018-02-17T23:43:08.439Z,64.12
2018-02-17T23:45:35.482Z,64.44
2018-02-17T23:48:02.585Z,64.83
2018-02-17T23:50:29.563Z,65.00
2018-02-17T23:52:56.637Z,65.16
2018-02-17T23:55:23.674Z,65.31
2018-02-17T23:57:50.740Z,65.28
